createdAt,value
2022-08-21T00:02:21.035Z,5.00
2022-08-21T00:07:20.922Z,5.40
2022-08-21T00:12:19.234Z,6.07
2022-08-21T00:17:20.063Z,5.80
2022-08-21T00:22:18.406Z,7.03
2022-08-21T00:27:18.066Z,6.43
2022-08-21T00:32:21.237Z,6.47
2022-08-21T00:37:19.606Z,6.40
2022-08-21T00:42:21.026Z,6.05
2022-08-21T00:47:20.202Z,6.40
2022-08-21T00:52:20.239Z,5.88
2022-08-21T00:57:23.652Z,6.05
2022-08-21T01:02:23.164Z,7.13
2022-08-21T01:07:22.003Z,6.93
2022-08-21T01:12:24.084Z,7.45
2022-08-21T01:17:23.024Z,7.22
2022-08-21T01:22:22.825Z,6.93
2022-08-21T01:27:21.082Z,8.38
2022-08-21T01:32:20.395Z,7.75
2022-08-21T01:37:19.102Z,8.52
2022-08-21T01:42:19.077Z,7.88
2022-08-21T01:47:17.796Z,7.15
2022-08-21T01:52:16.578Z,7.63
2022-08-21T01:57:15.644Z,7.75
2022-08-21T02:02:15.605Z,8.00
2022-08-21T02:07:13.907Z,6.75
2022-08-21T02:12:12.805Z,8.00
2022-08-21T02:17:11.056Z,7.68
2022-08-21T02:22:11.701Z,7.63
2022-08-21T02:27:10.003Z,7.75
2022-08-21T02:32:11.294Z,7.53
2022-08-21T02:37:09.698Z,7.95
2022-08-21T02:42:09.453Z,7.35
2022-08-21T02:47:07.765Z,7.50
2022-08-21T02:52:06.803Z,7.18
2022-08-21T02:57:05.134Z,8.32
2022-08-21T03:02:04.867Z,8.45
2022-08-21T03:07:03.175Z,7.95
2022-08-21T03:12:03.560Z,7.55
2022-08-21T03:17:01.969Z,7.57
2022-08-21T03:22:01.613Z,7.13
2022-08-21T03:27:00.968Z,7.53
2022-08-21T03:32:00.382Z,7.63
2022-08-21T03:36:58.704Z,7.90
2022-08-21T03:41:58.449Z,7.85
2022-08-21T03:46:56.728Z,9.00
2022-08-21T03:51:59.415Z,8.02
2022-08-21T03:56:59.305Z,7.67
2022-08-21T04:01:59.630Z,8.15
2022-08-21T04:06:58.210Z,6.90
2022-08-21T04:11:56.561Z,6.85
2022-08-21T04:16:56.283Z,7.95
2022-08-21T04:21:54.659Z,8.60
2022-08-21T04:26:53.514Z,7.57
2022-08-21T04:31:53.221Z,8.93
2022-08-21T04:36:52.868Z,8.20
2022-08-21T04:41:51.509Z,9.82
2022-08-21T04:46:49.786Z,8.00
2022-08-21T04:52:03.119Z,8.27
2022-08-21T04:57:04.761Z,7.20
2022-08-21T05:02:03.594Z,8.52
2022-08-21T05:07:03.620Z,6.97
2022-08-21T05:12:04.616Z,7.60
2022-08-21T05:17:02.994Z,7.47
2022-08-21T05:22:01.849Z,7.82
2022-08-21T05:27:00.196Z,7.35
2022-08-21T05:32:09.865Z,7.28
2022-08-21T05:37:08.106Z,6.80
2022-08-21T05:42:06.650Z,11.05
2022-08-21T05:47:07.746Z,8.32
2022-08-21T05:52:06.265Z,7.70
2022-08-21T05:57:04.629Z,8.15
2022-08-21T06:02:05.834Z,8.02
2022-08-21T06:07:06.048Z,7.50
2022-08-21T06:12:05.961Z,7.25
2022-08-21T06:17:05.107Z,7.45
2022-08-21T06:22:04.025Z,7.78
2022-08-21T06:27:08.538Z,8.38
2022-08-21T06:32:09.498Z,10.10
2022-08-21T06:37:09.269Z,7.32
2022-08-21T06:42:14.816Z,7.90
2022-08-21T06:47:13.388Z,7.63
2022-08-21T06:52:12.565Z,6.85
2022-08-21T06:57:12.194Z,9.93
2022-08-21T07:02:10.488Z,6.18
2022-08-21T07:07:08.837Z,6.82
2022-08-21T07:12:07.525Z,6.20
2022-08-21T07:17:07.208Z,5.93
2022-08-21T07:22:05.790Z,6.32
2022-08-21T07:27:08.215Z,6.93
2022-08-21T07:32:09.646Z,6.22
2022-08-21T07:37:10.023Z,5.80
2022-08-21T07:42:09.114Z,6.55
2022-08-21T07:47:07.403Z,5.78
2022-08-21T07:52:07.154Z,5.78
2022-08-21T07:57:06.008Z,6.82
2022-08-21T08:02:04.361Z,6.25
2022-08-21T08:07:02.790Z,6.45
2022-08-21T08:12:02.421Z,8.10
2022-08-21T08:17:00.643Z,6.22
2022-08-21T08:21:59.111Z,7.07
2022-08-21T08:26:58.166Z,7.25
2022-08-21T08:31:58.920Z,6.43
2022-08-21T08:36:58.953Z,6.03
2022-08-21T08:42:00.658Z,8.25
2022-08-21T08:47:01.397Z,6.72
2022-08-21T08:52:01.398Z,6.15
2022-08-21T08:57:00.628Z,7.18
2022-08-21T09:02:00.381Z,6.35
2022-08-21T09:07:03.604Z,6.10
2022-08-21T09:12:05.384Z,5.60
2022-08-21T09:17:12.334Z,5.38
2022-08-21T09:22:11.540Z,6.00
2022-08-21T09:27:11.722Z,7.45
2022-08-21T09:32:18.645Z,5.93
2022-08-21T09:37:20.501Z,5.65
2022-08-21T09:42:24.248Z,6.80
2022-08-21T09:47:28.337Z,6.80
2022-08-21T09:52:27.676Z,5.90
2022-08-21T09:57:50.246Z,6.28
2022-08-21T10:02:50.681Z,6.80
2022-08-21T10:07:48.940Z,7.03
2022-08-21T10:12:51.831Z,6.45
2022-08-21T10:17:55.840Z,6.35
2022-08-21T10:23:03.088Z,7.75
2022-08-21T10:28:03.477Z,6.95
2022-08-21T10:33:14.256Z,6.93
2022-08-21T10:38:49.165Z,6.05
2022-08-21T10:43:54.125Z,5.70
2022-08-21T10:53:58.211Z,5.97
2022-08-21T10:59:04.019Z,5.50
2022-08-21T11:04:11.396Z,6.25
2022-08-21T11:09:13.814Z,6.10
2022-08-21T11:14:15.250Z,5.37
2022-08-21T11:19:17.754Z,5.90
2022-08-21T11:24:27.254Z,6.18
2022-08-21T11:29:26.981Z,6.18
2022-08-21T11:34:32.917Z,5.72
2022-08-21T11:39:38.328Z,6.22
2022-08-21T11:44:43.841Z,5.75
2022-08-21T11:49:47.721Z,5.22
2022-08-21T11:54:48.953Z,5.32
2022-08-21T11:59:50.060Z,6.78
2022-08-21T12:04:49.652Z,5.43
2022-08-21T12:09:57.225Z,5.78
2022-08-21T12:15:06.612Z,5.45
2022-08-21T12:20:18.568Z,5.68
2022-08-21T12:25:21.862Z,5.38
2022-08-21T12:30:27.374Z,5.20
2022-08-21T12:35:27.761Z,5.63
2022-08-21T12:40:30.137Z,5.28
2022-08-21T12:45:33.141Z,5.30
2022-08-21T12:50:35.324Z,4.78
2022-08-21T12:55:36.178Z,5.10
2022-08-21T13:00:34.753Z,5.10
2022-08-21T13:05:34.138Z,6.38
2022-08-21T13:10:33.649Z,5.00
2022-08-21T13:15:34.814Z,6.20
2022-08-21T13:20:34.180Z,5.40
2022-08-21T13:25:36.191Z,5.45
2022-08-21T13:30:37.198Z,5.10
2022-08-21T13:35:38.144Z,5.93
2022-08-21T13:40:44.820Z,6.35
2022-08-21T13:45:45.789Z,5.95
2022-08-21T13:50:44.974Z,5.60
2022-08-21T13:55:44.665Z,5.70
2022-08-21T14:00:48.082Z,5.18
2022-08-21T14:10:46.226Z,6.80
2022-08-21T14:15:44.633Z,6.93
2022-08-21T14:20:44.745Z,6.93
2022-08-21T14:25:44.930Z,6.68
2022-08-21T14:30:44.325Z,6.70
2022-08-21T14:35:44.148Z,10.90
2022-08-21T14:40:43.712Z,6.57
2022-08-21T14:45:42.374Z,7.68
2022-08-21T14:50:41.498Z,5.70
2022-08-21T14:55:59.399Z,4.93
2022-08-21T15:00:59.114Z,6.95
2022-08-21T15:05:57.587Z,5.05
2022-08-21T15:11:16.263Z,5.13
2022-08-21T15:16:21.244Z,5.25
2022-08-21T15:21:19.543Z,6.20
2022-08-21T15:26:19.356Z,4.60
2022-08-21T15:31:17.787Z,4.75
2022-08-21T15:36:16.268Z,7.13
2022-08-21T15:41:15.714Z,5.63
2022-08-21T15:46:16.296Z,5.50
2022-08-21T15:51:15.745Z,5.00
2022-08-21T15:56:24.314Z,5.20
2022-08-21T16:01:24.161Z,5.05
2022-08-21T16:06:38.524Z,5.20
2022-08-21T16:11:41.113Z,8.60
2022-08-21T16:16:40.698Z,5.40
2022-08-21T16:21:38.965Z,6.07
2022-08-21T16:26:37.445Z,5.22
2022-08-21T16:31:35.736Z,6.25
2022-08-21T16:36:35.424Z,6.18
2022-08-21T16:41:35.594Z,7.50
2022-08-21T16:46:35.128Z,6.07
2022-08-21T16:51:34.175Z,6.13
2022-08-21T16:56:33.865Z,8.02
2022-08-21T17:01:33.253Z,5.80
2022-08-21T17:06:31.722Z,5.72
2022-08-21T17:11:38.095Z,6.30
2022-08-21T17:16:39.420Z,6.50
2022-08-21T17:21:37.635Z,5.20
2022-08-21T17:26:36.455Z,5.75
2022-08-21T17:31:34.887Z,4.50
2022-08-21T17:36:34.475Z,5.85
2022-08-21T17:41:32.852Z,5.15
2022-08-21T17:46:31.241Z,6.40
2022-08-21T17:51:29.731Z,6.18
2022-08-21T17:56:31.180Z,6.65
2022-08-21T18:01:31.462Z,7.43
2022-08-21T18:06:29.803Z,6.40
2022-08-21T18:11:30.389Z,6.93
2022-08-21T18:16:29.359Z,8.25
2022-08-21T18:21:28.398Z,6.93
2022-08-21T18:26:27.964Z,6.63
2022-08-21T18:31:30.036Z,7.15
2022-08-21T18:36:29.301Z,7.53
2022-08-21T18:41:28.084Z,8.77
2022-08-21T18:46:26.312Z,8.35
2022-08-21T18:51:26.131Z,10.63
2022-08-21T18:56:27.502Z,8.70
2022-08-21T19:01:26.181Z,7.75
2022-08-21T19:06:25.873Z,9.40
2022-08-21T19:11:25.740Z,8.25
2022-08-21T19:16:24.443Z,6.55
2022-08-21T19:21:22.691Z,9.27
2022-08-21T19:26:24.221Z,7.13
2022-08-21T19:31:24.068Z,7.65
2022-08-21T19:36:22.395Z,6.90
2022-08-21T19:41:27.467Z,7.40
2022-08-21T19:46:27.977Z,7.93
2022-08-21T19:51:26.799Z,9.20
2022-08-21T19:56:29.498Z,7.20
2022-08-21T20:01:28.417Z,7.90
2022-08-21T20:06:27.748Z,7.57
2022-08-21T20:11:28.639Z,6.22
2022-08-21T20:21:27.827Z,6.63
2022-08-21T20:26:28.010Z,7.22
2022-08-21T20:31:27.001Z,7.47
2022-08-21T20:36:26.596Z,8.45
2022-08-21T20:41:31.049Z,8.93
2022-08-21T20:46:32.293Z,8.02
2022-08-21T20:51:33.411Z,8.52
2022-08-21T20:56:36.188Z,9.02
2022-08-21T21:01:36.765Z,8.23
2022-08-21T21:06:36.664Z,9.18
2022-08-21T21:11:38.385Z,8.60
2022-08-21T21:16:41.308Z,9.02
2022-08-21T21:21:51.270Z,9.50
2022-08-21T21:26:53.166Z,7.93
2022-08-21T21:31:54.211Z,9.20
2022-08-21T21:36:56.521Z,8.25
2022-08-21T21:41:59.506Z,8.10
2022-08-21T21:47:03.569Z,9.45
2022-08-21T21:52:28.742Z,7.90
2022-08-21T21:57:42.380Z,8.10
2022-08-21T22:02:45.429Z,8.10
2022-08-21T22:07:46.173Z,8.70
2022-08-21T22:12:49.662Z,7.35
2022-08-21T22:17:52.101Z,7.93
2022-08-21T22:22:50.977Z,7.50
2022-08-21T22:27:52.535Z,7.63
2022-08-21T22:32:52.192Z,8.05
2022-08-21T22:37:52.004Z,7.50
2022-08-21T22:42:58.165Z,7.63
2022-08-21T22:48:04.324Z,8.10
2022-08-21T22:53:04.008Z,8.35
2022-08-21T22:58:05.895Z,7.68
2022-08-21T23:03:05.631Z,7.57
2022-08-21T23:08:23.912Z,7.40
2022-08-21T23:13:22.704Z,7.43
2022-08-21T23:18:28.288Z,7.53
2022-08-21T23:23:27.480Z,7.28
2022-08-21T23:28:32.155Z,8.00
2022-08-21T23:33:40.852Z,8.32
2022-08-21T23:38:44.828Z,8.70
2022-08-21T23:48:46.847Z,8.32
2022-08-21T23:53:51.669Z,9.48
2022-08-21T23:58:54.238Z,8.75
